sensor_id;sensor_type;location;lat;lon;timestamp;pressure;altitude;pressure_sealevel;temperature;humidity
22031;BME280;11179;52.106;21.024;2024-02-16T00:02:05;101113.56;;;7.32;64.38
22031;BME280;11179;52.106;21.024;2024-02-16T00:04:31;101113.78;;;7.30;64.47
22031;BME280;11179;52.106;21.024;2024-02-16T00:06:56;101110.44;;;7.28;64.29
22031;BME280;11179;52.106;21.024;2024-02-16T00:09:21;101109.38;;;7.29;64.38
22031;BME280;11179;52.106;21.024;2024-02-16T00:11:47;101112.72;;;7.31;64.40
22031;BME280;11179;52.106;21.024;2024-02-16T00:14:15;101104.53;;;7.31;64.21
22031;BME280;11179;52.106;21.024;2024-02-16T00:16:41;101104.34;;;7.26;64.14
22031;BME280;11179;52.106;21.024;2024-02-16T00:19:06;101107.91;;;7.26;64.23
22031;BME280;11179;52.106;21.024;2024-02-16T00:21:32;101106.00;;;7.27;64.50
22031;BME280;11179;52.106;21.024;2024-02-16T00:23:57;101110.63;;;7.26;64.50
22031;BME280;11179;52.106;21.024;2024-02-16T00:26:22;101116.94;;;7.27;64.20
22031;BME280;11179;52.106;21.024;2024-02-16T00:28:48;101107.06;;;7.26;64.03
22031;BME280;11179;52.106;21.024;2024-02-16T00:31:13;101116.72;;;7.28;64.34
22031;BME280;11179;52.106;21.024;2024-02-16T00:33:39;101120.91;;;7.31;64.14
22031;BME280;11179;52.106;21.024;2024-02-16T00:36:04;101108.31;;;7.30;63.89
22031;BME280;11179;52.106;21.024;2024-02-16T00:38:30;101115.25;;;7.26;64.09
22031;BME280;11179;52.106;21.024;2024-02-16T00:40:55;101108.13;;;7.25;64.04
22031;BME280;11179;52.106;21.024;2024-02-16T00:43:21;101109.81;;;7.26;64.00
22031;BME280;11179;52.106;21.024;2024-02-16T00:45:46;101103.50;;;7.25;63.96
22031;BME280;11179;52.106;21.024;2024-02-16T00:48:13;101103.09;;;7.22;63.79
22031;BME280;11179;52.106;21.024;2024-02-16T00:50:38;101108.13;;;7.25;63.61
22031;BME280;11179;52.106;21.024;2024-02-16T00:53:04;101097.41;;;7.23;63.83
22031;BME280;11179;52.106;21.024;2024-02-16T00:55:31;101103.06;;;7.28;63.59
22031;BME280;11179;52.106;21.024;2024-02-16T00:57:56;101090.69;;;7.26;63.51
22031;BME280;11179;52.106;21.024;2024-02-16T01:00:22;101098.47;;;7.22;63.56
22031;BME280;11179;52.106;21.024;2024-02-16T01:02:49;101099.31;;;7.23;63.66
22031;BME280;11179;52.106;21.024;2024-02-16T01:05:14;101086.91;;;7.20;63.41
22031;BME280;11179;52.106;21.024;2024-02-16T01:07:43;101088.44;;;7.16;63.47
22031;BME280;11179;52.106;21.024;2024-02-16T01:10:08;101084.25;;;7.14;63.54
22031;BME280;11179;52.106;21.024;2024-02-16T01:12:34;101084.88;;;7.09;63.44
22031;BME280;11179;52.106;21.024;2024-02-16T01:14:59;101080.09;;;7.05;63.48
22031;BME280;11179;52.106;21.024;2024-02-16T01:17:25;101081.56;;;7.01;63.57
22031;BME280;11179;52.106;21.024;2024-02-16T01:19:50;101081.16;;;6.97;63.33
22031;BME280;11179;52.106;21.024;2024-02-16T01:22:16;101073.63;;;6.92;63.41
22031;BME280;11179;52.106;21.024;2024-02-16T01:24:41;101073.44;;;6.87;63.34
22031;BME280;11179;52.106;21.024;2024-02-16T01:27:06;101067.78;;;6.82;63.41
22031;BME280;11179;52.106;21.024;2024-02-16T01:29:32;101068.84;;;6.81;63.44
22031;BME280;11179;52.106;21.024;2024-02-16T01:31:58;101064.25;;;6.75;63.02
22031;BME280;11179;52.106;21.024;2024-02-16T01:34:23;101058.81;;;6.69;63.61
22031;BME280;11179;52.106;21.024;2024-02-16T01:36:49;101064.09;;;6.64;63.55
22031;BME280;11179;52.106;21.024;2024-02-16T01:39:14;101059.69;;;6.56;63.42
22031;BME280;11179;52.106;21.024;2024-02-16T01:41:39;101052.59;;;6.48;63.58
22031;BME280;11179;52.106;21.024;2024-02-16T01:44:05;101045.06;;;6.44;63.67
22031;BME280;11179;52.106;21.024;2024-02-16T01:46:31;101044.25;;;6.37;63.83
22031;BME280;11179;52.106;21.024;2024-02-16T01:48:57;101048.44;;;6.33;64.09
22031;BME280;11179;52.106;21.024;2024-02-16T01:51:24;101042.13;;;6.26;63.69
22031;BME280;11179;52.106;21.024;2024-02-16T01:53:51;101042.56;;;6.22;63.93
22031;BME280;11179;52.106;21.024;2024-02-16T01:56:18;101043.84;;;6.20;63.84
22031;BME280;11179;52.106;21.024;2024-02-16T01:58:46;101044.03;;;6.18;63.83
22031;BME280;11179;52.106;21.024;2024-02-16T02:01:11;101040.06;;;6.14;63.83
22031;BME280;11179;52.106;21.024;2024-02-16T02:03:37;101041.56;;;6.10;63.72
22031;BME280;11179;52.106;21.024;2024-02-16T02:06:02;101043.44;;;6.10;63.73
22031;BME280;11179;52.106;21.024;2024-02-16T02:08:28;101043.66;;;6.08;63.85
22031;BME280;11179;52.106;21.024;2024-02-16T02:10:53;101048.06;;;6.03;64.04
22031;BME280;11179;52.106;21.024;2024-02-16T02:13:19;101043.84;;;6.00;64.03
22031;BME280;11179;52.106;21.024;2024-02-16T02:15:45;101047.03;;;5.97;63.85
22031;BME280;11179;52.106;21.024;2024-02-16T02:18:10;101042.00;;;5.94;63.96
22031;BME280;11179;52.106;21.024;2024-02-16T02:20:36;101050.16;;;5.94;63.80
22031;BME280;11179;52.106;21.024;2024-02-16T02:23:01;101047.44;;;5.87;64.15
22031;BME280;11179;52.106;21.024;2024-02-16T02:25:26;101048.47;;;5.86;63.85
22031;BME280;11179;52.106;21.024;2024-02-16T02:27:54;101056.06;;;5.84;64.18
22031;BME280;11179;52.106;21.024;2024-02-16T02:30:19;101044.72;;;5.81;64.15
22031;BME280;11179;52.106;21.024;2024-02-16T02:32:46;101041.38;;;5.79;63.99
22031;BME280;11179;52.106;21.024;2024-02-16T02:35:12;101036.34;;;5.76;64.17
22031;BME280;11179;52.106;21.024;2024-02-16T02:37:39;101038.44;;;5.74;64.11
22031;BME280;11179;52.106;21.024;2024-02-16T02:40:06;101036.16;;;5.71;64.01
22031;BME280;11179;52.106;21.024;2024-02-16T02:42:33;101039.91;;;5.70;64.03
22031;BME280;11179;52.106;21.024;2024-02-16T02:44:59;101038.66;;;5.66;63.87
22031;BME280;11179;52.106;21.024;2024-02-16T02:47:24;101029.66;;;5.59;64.23
22031;BME280;11179;52.106;21.024;2024-02-16T02:49:49;101040.13;;;5.55;64.06
22031;BME280;11179;52.106;21.024;2024-02-16T02:52:15;101035.09;;;5.52;64.14
22031;BME280;11179;52.106;21.024;2024-02-16T02:54:41;101045.56;;;5.48;64.09
22031;BME280;11179;52.106;21.024;2024-02-16T02:57:06;101030.69;;;5.44;64.19
22031;BME280;11179;52.106;21.024;2024-02-16T02:59:32;101034.66;;;5.42;64.43
22031;BME280;11179;52.106;21.024;2024-02-16T03:01:57;101038.63;;;5.39;64.21
22031;BME280;11179;52.106;21.024;2024-02-16T03:04:23;101045.13;;;5.38;64.21
22031;BME280;11179;52.106;21.024;2024-02-16T03:06:51;101043.84;;;5.34;64.12
22031;BME280;11179;52.106;21.024;2024-02-16T03:09:16;101045.13;;;5.32;64.16
22031;BME280;11179;52.106;21.024;2024-02-16T03:11:42;101049.31;;;5.28;64.05
22031;BME280;11179;52.106;21.024;2024-02-16T03:14:07;101048.69;;;5.26;64.18
22031;BME280;11179;52.106;21.024;2024-02-16T03:16:33;101040.28;;;5.21;63.93
22031;BME280;11179;52.106;21.024;2024-02-16T03:18:58;101041.75;;;5.17;64.24
22031;BME280;11179;52.106;21.024;2024-02-16T03:21:25;101043.00;;;5.14;64.17
22031;BME280;11179;52.106;21.024;2024-02-16T03:23:50;101041.94;;;5.08;64.19
22031;BME280;11179;52.106;21.024;2024-02-16T03:26:16;101048.41;;;5.01;64.48
22031;BME280;11179;52.106;21.024;2024-02-16T03:28:48;101046.72;;;5.00;64.40
22031;BME280;11179;52.106;21.024;2024-02-16T03:31:21;101047.97;;;4.97;64.43
22031;BME280;11179;52.106;21.024;2024-02-16T03:33:47;101052.38;;;4.92;64.71
22031;BME280;11179;52.106;21.024;2024-02-16T03:36:14;101050.69;;;4.91;64.67
22031;BME280;11179;52.106;21.024;2024-02-16T03:38:48;101052.56;;;4.90;64.36
22031;BME280;11179;52.106;21.024;2024-02-16T03:41:19;101055.50;;;4.89;64.67
22031;BME280;11179;52.106;21.024;2024-02-16T03:43:45;101059.25;;;4.88;64.61
22031;BME280;11179;52.106;21.024;2024-02-16T03:46:10;101049.63;;;4.85;64.68
22031;BME280;11179;52.106;21.024;2024-02-16T03:48:36;101049.19;;;4.82;64.68
22031;BME280;11179;52.106;21.024;2024-02-16T03:51:02;101055.66;;;4.80;64.45
22031;BME280;11179;52.106;21.024;2024-02-16T03:53:28;101054.22;;;4.78;64.30
22031;BME280;11179;52.106;21.024;2024-02-16T03:55:54;101048.53;;;4.73;64.55
22031;BME280;11179;52.106;21.024;2024-02-16T03:58:19;101053.78;;;4.74;64.40
22031;BME280;11179;52.106;21.024;2024-02-16T04:00:45;101057.53;;;4.73;64.72
22031;BME280;11179;52.106;21.024;2024-02-16T04:03:10;101053.97;;;4.73;64.49
22031;BME280;11179;52.106;21.024;2024-02-16T04:05:38;101040.78;;;4.70;64.67
22031;BME280;11179;52.106;21.024;2024-02-16T04:08:04;101053.94;;;4.66;64.41
22031;BME280;11179;52.106;21.024;2024-02-16T04:10:30;101052.88;;;4.61;64.81
22031;BME280;11179;52.106;21.024;2024-02-16T04:12:55;101053.06;;;4.59;64.68
22031;BME280;11179;52.106;21.024;2024-02-16T04:15:20;101046.34;;;4.55;64.50
22031;BME280;11179;52.106;21.024;2024-02-16T04:17:46;101049.69;;;4.51;64.71
22031;BME280;11179;52.106;21.024;2024-02-16T04:20:11;101051.56;;;4.50;64.93
22031;BME280;11179;52.106;21.024;2024-02-16T04:22:36;101055.34;;;4.49;64.53
22031;BME280;11179;52.106;21.024;2024-02-16T04:25:06;101050.94;;;4.48;64.76
22031;BME280;11179;52.106;21.024;2024-02-16T04:27:31;101055.72;;;4.46;64.73
22031;BME280;11179;52.106;21.024;2024-02-16T04:29:57;101051.09;;;4.40;64.81
22031;BME280;11179;52.106;21.024;2024-02-16T04:32:22;101051.31;;;4.38;64.70
22031;BME280;11179;52.106;21.024;2024-02-16T04:34:50;101054.03;;;4.38;64.90
22031;BME280;11179;52.106;21.024;2024-02-16T04:37:17;101045.44;;;4.35;65.00
22031;BME280;11179;52.106;21.024;2024-02-16T04:39:44;101056.69;;;4.32;64.95
22031;BME280;11179;52.106;21.024;2024-02-16T04:42:10;101049.59;;;4.31;64.81
22031;BME280;11179;52.106;21.024;2024-02-16T04:44:38;101056.06;;;4.30;64.86
22031;BME280;11179;52.106;21.024;2024-02-16T04:47:04;101052.09;;;4.26;65.15
22031;BME280;11179;52.106;21.024;2024-02-16T04:49:30;101044.97;;;4.25;64.89
22031;BME280;11179;52.106;21.024;2024-02-16T04:51:55;101040.97;;;4.21;65.01
22031;BME280;11179;52.106;21.024;2024-02-16T04:54:21;101048.47;;;4.19;64.96
22031;BME280;11179;52.106;21.024;2024-02-16T04:56:46;101043.63;;;4.14;65.24
22031;BME280;11179;52.106;21.024;2024-02-16T04:59:12;101050.75;;;4.15;65.18
22031;BME280;11179;52.106;21.024;2024-02-16T05:01:37;101051.97;;;4.13;64.90
22031;BME280;11179;52.106;21.024;2024-02-16T05:04:03;101051.34;;;4.11;65.08
22031;BME280;11179;52.106;21.024;2024-02-16T05:06:28;101057.00;;;4.09;65.29
22031;BME280;11179;52.106;21.024;2024-02-16T05:08:56;101050.06;;;4.06;65.30
22031;BME280;11179;52.106;21.024;2024-02-16T05:11:22;101037.91;;;4.02;65.13
22031;BME280;11179;52.106;21.024;2024-02-16T05:13:50;101042.50;;;4.02;65.25
22031;BME280;11179;52.106;21.024;2024-02-16T05:16:15;101040.81;;;4.01;65.21
22031;BME280;11179;52.106;21.024;2024-02-16T05:18:42;101040.41;;;3.97;65.45
22031;BME280;11179;52.106;21.024;2024-02-16T05:21:08;101040.78;;;3.94;65.63
22031;BME280;11179;52.106;21.024;2024-02-16T05:23:33;101038.06;;;3.94;65.63
22031;BME280;11179;52.106;21.024;2024-02-16T05:25:58;101035.75;;;3.91;65.41
22031;BME280;11179;52.106;21.024;2024-02-16T05:28:24;101046.13;;;3.88;65.39
22031;BME280;11179;52.106;21.024;2024-02-16T05:30:49;101043.38;;;3.81;65.88
22031;BME280;11179;52.106;21.024;2024-02-16T05:33:14;101036.91;;;3.82;65.66
22031;BME280;11179;52.106;21.024;2024-02-16T05:35:40;101046.56;;;3.85;65.95
22031;BME280;11179;52.106;21.024;2024-02-16T05:38:08;101041.31;;;3.83;65.92
22031;BME280;11179;52.106;21.024;2024-02-16T05:40:46;101040.88;;;3.86;66.14
22031;BME280;11179;52.106;21.024;2024-02-16T05:43:19;101037.56;;;3.84;66.82
22031;BME280;11179;52.106;21.024;2024-02-16T05:45:45;101050.38;;;3.90;67.37
22031;BME280;11179;52.106;21.024;2024-02-16T05:48:11;101051.00;;;3.92;67.56
22031;BME280;11179;52.106;21.024;2024-02-16T05:50:37;101048.94;;;3.94;68.14
22031;BME280;11179;52.106;21.024;2024-02-16T05:53:03;101049.97;;;3.93;68.33
22031;BME280;11179;52.106;21.024;2024-02-16T05:55:28;101051.66;;;3.94;68.83
22031;BME280;11179;52.106;21.024;2024-02-16T05:57:54;101051.22;;;3.91;69.18
22031;BME280;11179;52.106;21.024;2024-02-16T06:00:21;101053.09;;;3.90;68.94
22031;BME280;11179;52.106;21.024;2024-02-16T06:02:46;101059.16;;;3.92;69.19
22031;BME280;11179;52.106;21.024;2024-02-16T06:05:12;101058.97;;;3.94;69.12
22031;BME280;11179;52.106;21.024;2024-02-16T06:07:37;101065.88;;;3.96;68.98
22031;BME280;11179;52.106;21.024;2024-02-16T06:10:03;101059.63;;;3.96;68.70
22031;BME280;11179;52.106;21.024;2024-02-16T06:12:32;101065.06;;;3.96;68.77
22031;BME280;11179;52.106;21.024;2024-02-16T06:14:58;101067.56;;;3.97;68.16
22031;BME280;11179;52.106;21.024;2024-02-16T06:17:23;101071.75;;;4.00;68.48
22031;BME280;11179;52.106;21.024;2024-02-16T06:19:49;101072.59;;;4.00;68.13
22031;BME280;11179;52.106;21.024;2024-02-16T06:22:14;101080.16;;;4.05;67.83
22031;BME280;11179;52.106;21.024;2024-02-16T06:24:40;101086.03;;;4.08;67.83
22031;BME280;11179;52.106;21.024;2024-02-16T06:27:05;101084.59;;;4.13;67.57
22031;BME280;11179;52.106;21.024;2024-02-16T06:29:33;101086.06;;;4.15;67.54
22031;BME280;11179;52.106;21.024;2024-02-16T06:31:58;101082.56;;;4.21;67.21
22031;BME280;11179;52.106;21.024;2024-02-16T06:34:24;101090.13;;;4.26;67.12
22031;BME280;11179;52.106;21.024;2024-02-16T06:36:49;101097.47;;;4.32;67.26
22031;BME280;11179;52.106;21.024;2024-02-16T06:39:16;101093.13;;;4.37;67.26
22031;BME280;11179;52.106;21.024;2024-02-16T06:41:46;101093.81;;;4.53;67.13
22031;BME280;11179;52.106;21.024;2024-02-16T06:44:15;101094.13;;;4.71;66.68
22031;BME280;11179;52.106;21.024;2024-02-16T06:46:41;101088.34;;;4.94;66.37
22031;BME280;11179;52.106;21.024;2024-02-16T06:49:07;101097.66;;;5.19;66.36
22031;BME280;11179;52.106;21.024;2024-02-16T06:51:32;101093.53;;;5.49;65.87
22031;BME280;11179;52.106;21.024;2024-02-16T06:53:57;101102.38;;;5.78;65.11
22031;BME280;11179;52.106;21.024;2024-02-16T06:56:23;101095.47;;;5.95;64.59
22031;BME280;11179;52.106;21.024;2024-02-16T06:58:49;101106.53;;;6.13;64.20
22031;BME280;11179;52.106;21.024;2024-02-16T07:01:15;101097.50;;;6.26;64.03
22031;BME280;11179;52.106;21.024;2024-02-16T07:03:41;101097.97;;;6.36;63.73
22031;BME280;11179;52.106;21.024;2024-02-16T07:06:08;101094.16;;;6.44;63.44
22031;BME280;11179;52.106;21.024;2024-02-16T07:08:36;101097.72;;;6.51;63.11
22031;BME280;11179;52.106;21.024;2024-02-16T07:11:02;101094.75;;;6.59;63.20
22031;BME280;11179;52.106;21.024;2024-02-16T07:13:28;101089.25;;;6.66;62.56
22031;BME280;11179;52.106;21.024;2024-02-16T07:15:54;101096.97;;;6.82;62.35
22031;BME280;11179;52.106;21.024;2024-02-16T07:18:19;101101.69;;;7.06;61.99
22031;BME280;11179;52.106;21.024;2024-02-16T07:20:44;101090.50;;;7.21;61.79
22031;BME280;11179;52.106;21.024;2024-02-16T07:23:10;101097.09;;;7.45;61.47
22031;BME280;11179;52.106;21.024;2024-02-16T07:25:36;101100.91;;;7.69;60.79
22031;BME280;11179;52.106;21.024;2024-02-16T07:28:01;101094.91;;;7.85;60.08
22031;BME280;11179;52.106;21.024;2024-02-16T07:30:26;101095.25;;;7.95;59.65
22031;BME280;11179;52.106;21.024;2024-02-16T07:32:52;101094.81;;;7.98;59.11
22031;BME280;11179;52.106;21.024;2024-02-16T07:35:18;101088.59;;;8.09;59.06
22031;BME280;11179;52.106;21.024;2024-02-16T07:37:43;101093.75;;;8.24;58.64
22031;BME280;11179;52.106;21.024;2024-02-16T07:40:09;101090.94;;;8.30;58.38
22031;BME280;11179;52.106;21.024;2024-02-16T07:42:39;101093.84;;;8.35;58.00
22031;BME280;11179;52.106;21.024;2024-02-16T07:45:05;101096.00;;;8.52;57.99
22031;BME280;11179;52.106;21.024;2024-02-16T07:47:32;101086.41;;;8.61;57.18
22031;BME280;11179;52.106;21.024;2024-02-16T07:49:57;101097.81;;;8.76;57.04
22031;BME280;11179;52.106;21.024;2024-02-16T07:52:22;101097.50;;;8.84;56.44
22031;BME280;11179;52.106;21.024;2024-02-16T07:54:48;101099.47;;;8.95;56.55
22031;BME280;11179;52.106;21.024;2024-02-16T07:57:13;101095.03;;;9.13;55.81
22031;BME280;11179;52.106;21.024;2024-02-16T07:59:40;101108.16;;;9.22;55.26
22031;BME280;11179;52.106;21.024;2024-02-16T08:02:05;101107.38;;;9.33;55.08
22031;BME280;11179;52.106;21.024;2024-02-16T08:04:32;101101.41;;;9.55;54.87
22031;BME280;11179;52.106;21.024;2024-02-16T08:06:57;101101.56;;;9.71;54.64
22031;BME280;11179;52.106;21.024;2024-02-16T08:09:23;101098.81;;;9.71;54.06
22031;BME280;11179;52.106;21.024;2024-02-16T08:11:48;101095.16;;;9.77;53.85
22031;BME280;11179;52.106;21.024;2024-02-16T08:14:13;101099.81;;;9.89;53.46
22031;BME280;11179;52.106;21.024;2024-02-16T08:16:39;101104.38;;;9.95;53.35
22031;BME280;11179;52.106;21.024;2024-02-16T08:19:04;101108.06;;;10.00;53.40
22031;BME280;11179;52.106;21.024;2024-02-16T08:21:30;101101.41;;;9.96;52.77
22031;BME280;11179;52.106;21.024;2024-02-16T08:23:55;101099.50;;;9.97;52.92
22031;BME280;11179;52.106;21.024;2024-02-16T08:26:21;101093.53;;;10.00;52.08
22031;BME280;11179;52.106;21.024;2024-02-16T08:28:46;101095.78;;;10.03;52.09
22031;BME280;11179;52.106;21.024;2024-02-16T08:31:15;101088.53;;;10.08;51.71
22031;BME280;11179;52.106;21.024;2024-02-16T08:33:43;101086.13;;;10.12;51.85
22031;BME280;11179;52.106;21.024;2024-02-16T08:36:08;101089.00;;;10.17;51.79
22031;BME280;11179;52.106;21.024;2024-02-16T08:38:33;101087.22;;;10.11;51.67
22031;BME280;11179;52.106;21.024;2024-02-16T08:41:00;101081.59;;;10.18;51.58
22031;BME280;11179;52.106;21.024;2024-02-16T08:43:25;101073.75;;;10.21;51.37
22031;BME280;11179;52.106;21.024;2024-02-16T08:45:51;101084.59;;;10.04;51.07
22031;BME280;11179;52.106;21.024;2024-02-16T08:48:16;101089.09;;;9.99;51.06
22031;BME280;11179;52.106;21.024;2024-02-16T08:50:41;101086.25;;;9.94;51.02
22031;BME280;11179;52.106;21.024;2024-02-16T08:53:07;101091.75;;;9.94;50.99
22031;BME280;11179;52.106;21.024;2024-02-16T08:55:35;101084.34;;;10.06;51.29
22031;BME280;11179;52.106;21.024;2024-02-16T08:58:00;101080.78;;;10.17;51.18
22031;BME280;11179;52.106;21.024;2024-02-16T09:00:26;101089.38;;;10.21;50.82
22031;BME280;11179;52.106;21.024;2024-02-16T09:02:52;101089.47;;;10.26;51.00
22031;BME280;11179;52.106;21.024;2024-02-16T09:05:19;101088.53;;;10.32;50.91
22031;BME280;11179;52.106;21.024;2024-02-16T09:07:44;101083.75;;;10.27;50.54
22031;BME280;11179;52.106;21.024;2024-02-16T09:10:10;101087.56;;;10.14;50.62
22031;BME280;11179;52.106;21.024;2024-02-16T09:12:35;101079.22;;;10.09;50.85
22031;BME280;11179;52.106;21.024;2024-02-16T09:15:00;101080.41;;;10.13;50.53
22031;BME280;11179;52.106;21.024;2024-02-16T09:17:26;101080.53;;;10.19;50.42
22031;BME280;11179;52.106;21.024;2024-02-16T09:19:51;101076.72;;;10.31;50.70
22031;BME280;11179;52.106;21.024;2024-02-16T09:22:17;101072.91;;;10.32;50.09
22031;BME280;11179;52.106;21.024;2024-02-16T09:24:42;101082.22;;;10.31;50.00
22031;BME280;11179;52.106;21.024;2024-02-16T09:27:12;101076.25;;;10.34;49.85
22031;BME280;11179;52.106;21.024;2024-02-16T09:29:37;101082.56;;;10.35;49.79
22031;BME280;11179;52.106;21.024;2024-02-16T09:32:03;101069.19;;;10.38;49.91
22031;BME280;11179;52.106;21.024;2024-02-16T09:34:29;101066.94;;;10.47;50.03
22031;BME280;11179;52.106;21.024;2024-02-16T09:36:55;101062.84;;;10.61;49.93
22031;BME280;11179;52.106;21.024;2024-02-16T09:39:20;101069.97;;;10.74;49.83
22031;BME280;11179;52.106;21.024;2024-02-16T09:41:50;101069.63;;;10.70;49.19
22031;BME280;11179;52.106;21.024;2024-02-16T09:44:16;101069.16;;;10.73;49.04
22031;BME280;11179;52.106;21.024;2024-02-16T09:46:42;101067.09;;;10.80;49.22
22031;BME280;11179;52.106;21.024;2024-02-16T09:49:07;101069.47;;;10.89;48.88
22031;BME280;11179;52.106;21.024;2024-02-16T09:51:36;101071.84;;;10.85;49.20
22031;BME280;11179;52.106;21.024;2024-02-16T09:54:02;101058.41;;;10.72;48.88
22031;BME280;11179;52.106;21.024;2024-02-16T09:56:28;101060.91;;;10.73;49.08
22031;BME280;11179;52.106;21.024;2024-02-16T09:58:53;101055.16;;;10.75;48.99
22031;BME280;11179;52.106;21.024;2024-02-16T10:01:21;101054.81;;;10.71;49.12
22031;BME280;11179;52.106;21.024;2024-02-16T10:03:47;101057.81;;;10.70;49.24
22031;BME280;11179;52.106;21.024;2024-02-16T10:06:14;101056.84;;;10.76;49.14
22031;BME280;11179;52.106;21.024;2024-02-16T10:08:54;101053.47;;;10.85;49.33
22031;BME280;11179;52.106;21.024;2024-02-16T10:11:24;101053.91;;;10.94;49.16
22031;BME280;11179;52.106;21.024;2024-02-16T10:14:02;101047.44;;;11.00;48.86
22031;BME280;11179;52.106;21.024;2024-02-16T10:16:28;101049.47;;;10.93;49.06
22031;BME280;11179;52.106;21.024;2024-02-16T10:18:55;101044.81;;;10.94;48.71
22031;BME280;11179;52.106;21.024;2024-02-16T10:21:28;101042.00;;;10.89;49.17
22031;BME280;11179;52.106;21.024;2024-02-16T10:24:04;101046.50;;;10.95;49.11
22031;BME280;11179;52.106;21.024;2024-02-16T10:26:30;101035.72;;;11.05;49.12
22031;BME280;11179;52.106;21.024;2024-02-16T10:28:57;101035.72;;;11.16;48.98
22031;BME280;11179;52.106;21.024;2024-02-16T10:31:24;101034.47;;;11.24;49.06
22031;BME280;11179;52.106;21.024;2024-02-16T10:34:01;101031.28;;;11.32;49.10
22031;BME280;11179;52.106;21.024;2024-02-16T10:36:31;101020.66;;;11.36;49.06
22031;BME280;11179;52.106;21.024;2024-02-16T10:38:57;101016.81;;;11.37;49.29
22031;BME280;11179;52.106;21.024;2024-02-16T10:41:26;101017.75;;;11.42;49.23
22031;BME280;11179;52.106;21.024;2024-02-16T10:43:53;101011.44;;;11.42;49.07
22031;BME280;11179;52.106;21.024;2024-02-16T10:46:20;101009.25;;;11.44;49.48
22031;BME280;11179;52.106;21.024;2024-02-16T10:48:45;101009.94;;;11.51;49.10
22031;BME280;11179;52.106;21.024;2024-02-16T10:51:13;101013.09;;;11.43;49.24
22031;BME280;11179;52.106;21.024;2024-02-16T10:53:41;101005.41;;;11.45;49.34
22031;BME280;11179;52.106;21.024;2024-02-16T10:56:07;101001.91;;;11.49;49.52
22031;BME280;11179;52.106;21.024;2024-02-16T10:58:32;100992.34;;;11.52;49.82
22031;BME280;11179;52.106;21.024;2024-02-16T11:01:08;100987.78;;;11.58;49.80
22031;BME280;11179;52.106;21.024;2024-02-16T11:03:34;100986.75;;;11.47;49.80
22031;BME280;11179;52.106;21.024;2024-02-16T11:06:14;100989.44;;;11.42;49.86
22031;BME280;11179;52.106;21.024;2024-02-16T11:08:39;100974.66;;;11.48;50.35
22031;BME280;11179;52.106;21.024;2024-02-16T11:11:05;100986.25;;;11.50;50.08
22031;BME280;11179;52.106;21.024;2024-02-16T11:13:34;100969.41;;;11.46;49.97
22031;BME280;11179;52.106;21.024;2024-02-16T11:16:06;100967.59;;;11.52;50.25
22031;BME280;11179;52.106;21.024;2024-02-16T11:18:37;100968.19;;;11.54;50.16
22031;BME280;11179;52.106;21.024;2024-02-16T11:21:03;100974.09;;;11.63;50.21
22031;BME280;11179;52.106;21.024;2024-02-16T11:23:32;100972.41;;;11.62;49.84
22031;BME280;11179;52.106;21.024;2024-02-16T11:26:00;100953.34;;;11.55;49.97
22031;BME280;11179;52.106;21.024;2024-02-16T11:28:27;100957.75;;;11.56;50.02
22031;BME280;11179;52.106;21.024;2024-02-16T11:30:53;100955.59;;;11.58;50.35
22031;BME280;11179;52.106;21.024;2024-02-16T11:33:18;100951.25;;;11.62;50.31
22031;BME280;11179;52.106;21.024;2024-02-16T11:35:53;100947.00;;;11.71;50.41
22031;BME280;11179;52.106;21.024;2024-02-16T11:38:19;100940.56;;;11.82;50.36
22031;BME280;11179;52.106;21.024;2024-02-16T11:40:53;100935.06;;;11.82;50.44
22031;BME280;11179;52.106;21.024;2024-02-16T11:43:22;100934.03;;;11.88;50.41
22031;BME280;11179;52.106;21.024;2024-02-16T11:45:48;100925.88;;;11.94;50.24
22031;BME280;11179;52.106;21.024;2024-02-16T11:48:21;100928.75;;;12.04;50.38
22031;BME280;11179;52.106;21.024;2024-02-16T11:50:49;100931.63;;;12.14;50.50
22031;BME280;11179;52.106;21.024;2024-02-16T11:53:18;100931.38;;;12.15;50.17
22031;BME280;11179;52.106;21.024;2024-02-16T11:55:48;100925.88;;;12.15;50.00
22031;BME280;11179;52.106;21.024;2024-02-16T11:58:17;100923.94;;;12.16;50.02
22031;BME280;11179;52.106;21.024;2024-02-16T12:00:47;100933.97;;;12.22;50.28
22031;BME280;11179;52.106;21.024;2024-02-16T12:03:21;100913.06;;;12.26;50.10
22031;BME280;11179;52.106;21.024;2024-02-16T12:05:58;100915.91;;;12.31;50.06
22031;BME280;11179;52.106;21.024;2024-02-16T12:08:24;100909.38;;;12.37;50.03
22031;BME280;11179;52.106;21.024;2024-02-16T12:10:56;100901.66;;;12.39;50.03
22031;BME280;11179;52.106;21.024;2024-02-16T12:13:22;100903.44;;;12.45;50.20
22031;BME280;11179;52.106;21.024;2024-02-16T12:15:48;100891.00;;;12.43;50.10
22031;BME280;11179;52.106;21.024;2024-02-16T12:21:03;100888.97;;;12.38;49.88
22031;BME280;11179;52.106;21.024;2024-02-16T12:23:30;100895.09;;;12.40;49.74
22031;BME280;11179;52.106;21.024;2024-02-16T12:25:58;100876.66;;;12.41;49.80
22031;BME280;11179;52.106;21.024;2024-02-16T12:28:25;100880.34;;;12.51;49.92
22031;BME280;11179;52.106;21.024;2024-02-16T12:30:52;100880.91;;;12.53;49.97
22031;BME280;11179;52.106;21.024;2024-02-16T12:33:17;100883.16;;;12.56;49.92
22031;BME280;11179;52.106;21.024;2024-02-16T12:35:43;100878.75;;;12.55;50.04
22031;BME280;11179;52.106;21.024;2024-02-16T12:38:10;100874.31;;;12.54;49.83
22031;BME280;11179;52.106;21.024;2024-02-16T12:40:36;100877.41;;;12.58;49.73
22031;BME280;11179;52.106;21.024;2024-02-16T12:43:01;100871.91;;;12.58;49.74
22031;BME280;11179;52.106;21.024;2024-02-16T12:45:26;100870.56;;;12.60;49.78
22031;BME280;11179;52.106;21.024;2024-02-16T12:47:52;100863.38;;;12.59;49.63